createdAt,value
2022-10-05T00:00:29.057Z,99.90
2022-10-05T00:05:33.545Z,99.90
2022-10-05T00:11:12.939Z,99.90
2022-10-05T00:13:40.481Z,99.90
2022-10-05T00:16:11.776Z,99.90
2022-10-05T00:18:41.993Z,99.90
2022-10-05T00:21:20.771Z,99.90
2022-10-05T00:23:50.272Z,99.90
2022-10-05T00:26:23.364Z,99.90
2022-10-05T00:28:50.699Z,99.90
2022-10-05T00:31:21.248Z,99.90
2022-10-05T00:33:49.790Z,99.90
2022-10-05T00:36:22.256Z,99.90
2022-10-05T00:38:49.075Z,99.90
2022-10-05T00:41:26.501Z,99.90
2022-10-05T00:44:12.857Z,99.90
2022-10-05T00:47:05.315Z,99.90
2022-10-05T00:50:04.782Z,99.90
2022-10-05T00:52:57.385Z,99.90
2022-10-05T00:55:37.869Z,99.90
2022-10-05T00:58:30.284Z,99.90
2022-10-05T01:01:13.276Z,99.90
2022-10-05T01:03:40.121Z,99.90
2022-10-05T01:06:51.308Z,99.90
2022-10-05T01:09:38.649Z,99.90
2022-10-05T01:12:14.923Z,99.90
2022-10-05T01:15:06.458Z,99.90
2022-10-05T01:17:45.037Z,99.90
2022-10-05T01:20:31.973Z,99.90
2022-10-05T01:23:20.514Z,99.90
2022-10-05T01:26:21.322Z,99.90
2022-10-05T01:29:19.592Z,99.90
2022-10-05T01:35:22.208Z,99.90
2022-10-05T01:38:11.860Z,99.90
2022-10-05T01:40:58.843Z,99.90
2022-10-05T01:43:57.939Z,99.90
2022-10-05T01:46:38.574Z,99.90
2022-10-05T01:49:34.881Z,99.90
2022-10-05T01:52:28.991Z,99.90
2022-10-05T01:55:14.010Z,99.90
2022-10-05T01:57:40.629Z,99.90
2022-10-05T02:00:10.610Z,99.90
2022-10-05T02:02:49.825Z,99.90
2022-10-05T02:05:23.737Z,99.90
2022-10-05T02:07:59.608Z,99.90
2022-10-05T02:10:47.132Z,99.90
2022-10-05T02:13:33.875Z,99.90
2022-10-05T02:16:27.155Z,99.90
2022-10-05T02:19:27.963Z,99.90
2022-10-05T02:22:01.538Z,99.90
2022-10-05T02:24:40.238Z,99.90
2022-10-05T02:27:10.042Z,99.90
2022-10-05T02:29:43.060Z,99.90
2022-10-05T02:32:15.374Z,99.90
2022-10-05T02:34:43.397Z,99.90
2022-10-05T02:37:30.127Z,99.90
2022-10-05T02:40:05.863Z,99.90
2022-10-05T02:43:03.573Z,99.90
2022-10-05T02:45:39.384Z,99.90
2022-10-05T02:48:30.525Z,99.90
2022-10-05T02:51:06.603Z,99.90
2022-10-05T02:53:57.389Z,99.90
2022-10-05T02:56:45.587Z,99.90
2022-10-05T02:59:26.559Z,99.90
2022-10-05T03:04:59.453Z,99.90
2022-10-05T03:07:35.555Z,99.90
2022-10-05T03:10:16.779Z,99.90
2022-10-05T03:13:26.041Z,99.90
2022-10-05T03:16:06.720Z,99.90
2022-10-05T03:18:46.331Z,99.90
2022-10-05T03:21:38.701Z,99.90
2022-10-05T03:24:18.117Z,99.90
2022-10-05T03:27:26.940Z,99.90
2022-10-05T03:30:10.234Z,99.90
2022-10-05T03:32:43.141Z,99.90
2022-10-05T03:35:35.943Z,99.90
2022-10-05T03:38:15.493Z,99.90
2022-10-05T03:40:53.913Z,99.90
2022-10-05T03:43:45.421Z,99.90
2022-10-05T03:55:27.285Z,99.90
2022-10-05T03:58:07.160Z,99.90
2022-10-05T04:00:37.461Z,99.90
2022-10-05T04:03:18.335Z,99.90
2022-10-05T04:05:52.946Z,99.90
2022-10-05T04:09:14.968Z,99.90
2022-10-05T04:12:18.743Z,99.90
2022-10-05T04:14:57.210Z,99.90
2022-10-05T04:17:44.136Z,99.90
2022-10-05T04:20:38.284Z,99.90
2022-10-05T04:23:29.951Z,99.90
2022-10-05T04:26:05.870Z,99.90
2022-10-05T04:28:50.001Z,99.90
2022-10-05T04:31:36.379Z,99.90
2022-10-05T04:34:34.127Z,99.90
2022-10-05T04:37:13.666Z,99.90
2022-10-05T04:39:58.230Z,99.90
2022-10-05T04:42:42.353Z,99.90
2022-10-05T04:45:31.314Z,99.90
2022-10-05T04:48:14.226Z,99.90
2022-10-05T04:54:33.648Z,99.90
2022-10-05T04:57:21.416Z,99.90
2022-10-05T05:00:33.199Z,99.90
2022-10-05T05:03:37.346Z,99.90
2022-10-05T05:06:38.563Z,99.90
2022-10-05T05:09:32.819Z,99.90
2022-10-05T05:12:03.334Z,99.90
2022-10-05T05:15:04.106Z,99.90
2022-10-05T05:18:12.564Z,99.90
2022-10-05T05:21:24.377Z,99.90
2022-10-05T05:24:21.460Z,99.90
2022-10-05T05:27:13.361Z,99.90
2022-10-05T05:30:16.455Z,99.90
2022-10-05T05:33:09.774Z,99.90
2022-10-05T05:36:07.658Z,99.90
2022-10-05T05:38:52.898Z,99.90
2022-10-05T05:41:25.915Z,99.90
2022-10-05T05:44:12.618Z,99.90
2022-10-05T05:47:04.041Z,99.90
2022-10-05T05:50:02.912Z,99.90
2022-10-05T05:52:58.099Z,99.90
2022-10-05T05:55:38.738Z,99.90
2022-10-05T05:58:28.011Z,99.90
2022-10-05T06:01:25.073Z,99.90
2022-10-05T06:10:40.779Z,99.90
2022-10-05T06:13:21.544Z,99.90
2022-10-05T06:16:40.821Z,99.90
2022-10-05T06:19:17.940Z,99.90
2022-10-05T06:22:08.535Z,99.90
2022-10-05T06:24:52.154Z,99.90
2022-10-05T06:27:36.455Z,99.90
2022-10-05T06:30:17.786Z,99.90
2022-10-05T06:33:20.536Z,99.90
2022-10-05T06:36:06.217Z,99.90
2022-10-05T06:38:55.017Z,99.90
2022-10-05T06:41:37.823Z,99.90
2022-10-05T06:44:19.617Z,99.90
2022-10-05T06:47:32.767Z,99.90
2022-10-05T06:50:56.360Z,99.90
2022-10-05T06:53:53.812Z,99.90
2022-10-05T06:56:59.234Z,99.90
2022-10-05T06:59:58.492Z,99.90
2022-10-05T07:02:51.484Z,99.90
2022-10-05T07:05:30.753Z,99.90
2022-10-05T07:08:11.285Z,99.90
2022-10-05T07:10:53.666Z,99.90
2022-10-05T07:13:48.567Z,99.90
2022-10-05T07:16:31.779Z,99.90
2022-10-05T07:19:28.025Z,99.90
2022-10-05T07:22:34.679Z,99.90
2022-10-05T07:25:23.166Z,99.90
2022-10-05T07:28:16.873Z,99.90
2022-10-05T07:31:01.443Z,99.90
2022-10-05T07:33:51.725Z,99.90
2022-10-05T07:37:16.382Z,99.90
2022-10-05T07:40:09.249Z,99.90
2022-10-05T07:42:59.266Z,99.90
2022-10-05T07:45:47.684Z,99.90
2022-10-05T07:48:32.373Z,99.90
2022-10-05T07:51:20.541Z,99.90
2022-10-05T07:54:16.950Z,99.90
2022-10-05T08:01:34.891Z,99.90
2022-10-05T08:04:41.698Z,99.90
2022-10-05T08:07:15.461Z,99.90
2022-10-05T08:10:15.936Z,99.90
2022-10-05T08:13:05.684Z,99.90
2022-10-05T08:15:44.192Z,99.90
2022-10-05T08:19:15.358Z,99.90
2022-10-05T08:27:32.142Z,99.90
2022-10-05T08:30:05.852Z,99.90
2022-10-05T08:33:48.494Z,99.90
2022-10-05T08:36:28.269Z,99.90
2022-10-05T08:39:03.426Z,99.90
2022-10-05T08:41:52.565Z,99.90
2022-10-05T08:44:42.159Z,99.90
2022-10-05T08:47:27.372Z,99.90
2022-10-05T08:50:57.212Z,99.90
2022-10-05T08:53:47.626Z,99.90
2022-10-05T08:56:36.947Z,99.90
2022-10-05T08:59:32.669Z,99.90
2022-10-05T09:02:25.157Z,99.90
2022-10-05T09:05:13.022Z,99.90
2022-10-05T09:07:56.614Z,99.90
2022-10-05T09:11:21.305Z,99.90
2022-10-05T09:14:40.547Z,99.90
2022-10-05T09:17:48.304Z,99.90
2022-10-05T09:20:31.662Z,99.90
2022-10-05T09:23:13.309Z,99.90
2022-10-05T09:26:07.430Z,99.90
2022-10-05T09:28:49.281Z,99.90
2022-10-05T09:31:56.328Z,99.90
2022-10-05T09:35:04.677Z,99.90
2022-10-05T09:38:01.727Z,99.90
2022-10-05T09:41:33.876Z,99.90
2022-10-05T09:44:30.166Z,99.90
2022-10-05T09:47:46.053Z,99.90
2022-10-05T09:56:23.956Z,99.90
2022-10-05T09:59:11.741Z,99.90
2022-10-05T10:01:57.065Z,99.90
2022-10-05T10:05:05.249Z,99.90
2022-10-05T10:08:10.614Z,99.90
2022-10-05T10:11:01.480Z,99.90
2022-10-05T10:13:55.093Z,99.90
2022-10-05T10:16:43.929Z,99.90
2022-10-05T10:19:43.536Z,99.90
2022-10-05T10:22:42.913Z,99.90
2022-10-05T10:25:48.591Z,99.90
2022-10-05T10:28:27.316Z,99.90
2022-10-05T10:31:42.181Z,99.90
2022-10-05T10:34:44.612Z,99.90
2022-10-05T10:37:29.645Z,99.90
2022-10-05T10:40:35.107Z,99.90
2022-10-05T10:43:33.880Z,99.90
2022-10-05T10:46:28.592Z,99.90
2022-10-05T10:49:30.510Z,99.90
2022-10-05T10:52:23.010Z,99.90
2022-10-05T10:55:17.610Z,99.90
2022-10-05T10:58:16.011Z,99.90
2022-10-05T11:01:07.253Z,99.90
2022-10-05T11:03:59.052Z,99.90
2022-10-05T11:06:46.827Z,99.90
2022-10-05T11:09:57.996Z,99.90
2022-10-05T11:13:04.991Z,99.90
2022-10-05T11:15:52.001Z,99.90
2022-10-05T11:18:27.755Z,99.90
2022-10-05T11:21:22.353Z,99.90
2022-10-05T11:24:10.682Z,99.90
2022-10-05T11:27:16.309Z,99.90
2022-10-05T11:30:11.475Z,99.90
2022-10-05T11:33:12.059Z,99.90
2022-10-05T11:36:04.044Z,99.90
2022-10-05T11:39:03.358Z,99.90
2022-10-05T11:42:13.631Z,99.90
2022-10-05T11:45:15.223Z,99.90
2022-10-05T11:48:00.275Z,99.90
2022-10-05T11:50:31.781Z,99.90
2022-10-05T11:53:27.441Z,99.90
2022-10-05T11:56:13.211Z,99.90
2022-10-05T11:58:46.628Z,99.90
2022-10-05T12:01:13.222Z,99.90
2022-10-05T12:39:42.068Z,99.90
2022-10-05T12:57:57.018Z,99.90
2022-10-05T13:00:24.659Z,99.90
2022-10-05T13:03:26.875Z,99.90
2022-10-05T13:06:25.426Z,99.90
2022-10-05T13:09:28.693Z,99.90
2022-10-05T13:18:08.458Z,99.90
2022-10-05T13:21:02.030Z,99.90
2022-10-05T13:29:45.899Z,99.90
2022-10-05T13:33:10.543Z,99.90
2022-10-05T13:42:59.393Z,99.90
2022-10-05T13:45:42.969Z,99.90
2022-10-05T13:48:43.448Z,99.90
2022-10-05T13:51:26.017Z,99.90
2022-10-05T13:54:29.761Z,99.90
2022-10-05T13:57:22.243Z,99.70
2022-10-05T14:00:10.027Z,99.90
2022-10-05T14:02:41.711Z,99.20
2022-10-05T14:05:38.236Z,99.90
2022-10-05T14:08:04.928Z,99.80
2022-10-05T14:10:44.487Z,99.90
2022-10-05T14:13:21.040Z,99.10
2022-10-05T14:16:25.966Z,98.70
2022-10-05T14:19:24.718Z,99.60
2022-10-05T14:22:28.897Z,98.60
2022-10-05T14:25:27.673Z,99.90
2022-10-05T14:28:39.334Z,99.10
2022-10-05T14:31:28.302Z,98.10
2022-10-05T14:34:34.078Z,97.50
2022-10-05T14:40:32.861Z,98.40
2022-10-05T14:43:36.127Z,97.50
2022-10-05T14:46:28.238Z,97.50
2022-10-05T14:56:35.266Z,96.80
2022-10-05T15:02:20.498Z,95.90
2022-10-05T15:12:07.109Z,95.40
2022-10-05T15:45:16.916Z,96.30
2022-10-05T15:48:08.728Z,97.00
2022-10-05T15:53:51.261Z,97.10
2022-10-05T15:57:40.426Z,97.10
2022-10-05T16:01:08.705Z,97.50
2022-10-05T16:04:35.235Z,98.00
2022-10-05T16:07:41.540Z,98.00
2022-10-05T16:10:25.543Z,98.40
2022-10-05T16:13:55.517Z,98.20
2022-10-05T16:16:54.548Z,99.10
2022-10-05T16:20:25.921Z,99.10
2022-10-05T16:32:03.822Z,99.30
2022-10-05T16:35:08.756Z,99.90
2022-10-05T16:38:07.371Z,99.90
2022-10-05T16:41:13.545Z,99.90
2022-10-05T16:46:44.501Z,99.90
2022-10-05T16:49:29.673Z,99.90
2022-10-05T16:52:16.852Z,99.90
2022-10-05T16:54:56.725Z,99.90
2022-10-05T16:57:37.162Z,99.90
2022-10-05T17:00:24.291Z,99.90
2022-10-05T17:02:54.105Z,99.90
2022-10-05T17:05:30.564Z,99.90
2022-10-05T17:08:12.698Z,99.90
2022-10-05T17:11:08.428Z,99.90
2022-10-05T17:14:40.029Z,99.90
2022-10-05T17:17:48.500Z,99.90
2022-10-05T17:20:54.763Z,99.90
2022-10-05T17:23:28.554Z,99.90
2022-10-05T17:26:32.894Z,99.90
2022-10-05T17:29:14.592Z,99.90
2022-10-05T17:32:08.432Z,99.90
2022-10-05T17:35:00.828Z,99.90
2022-10-05T17:38:04.718Z,99.90
2022-10-05T17:44:11.181Z,99.90
2022-10-05T17:47:47.336Z,99.90
2022-10-05T17:51:00.271Z,99.90
2022-10-05T17:54:03.843Z,99.90
2022-10-05T17:56:52.639Z,99.90
2022-10-05T18:00:02.154Z,99.90
2022-10-05T18:02:40.354Z,99.90
2022-10-05T18:05:14.487Z,99.90
2022-10-05T18:07:50.387Z,99.90
2022-10-05T18:10:29.236Z,99.90
2022-10-05T18:12:59.511Z,99.90
2022-10-05T18:15:26.568Z,99.90
2022-10-05T18:17:56.772Z,99.90
2022-10-05T18:20:31.040Z,99.90
2022-10-05T18:23:00.885Z,99.90
2022-10-05T18:25:33.544Z,99.90
2022-10-05T18:28:29.710Z,99.90
2022-10-05T18:31:45.037Z,99.90
2022-10-05T18:34:40.800Z,99.90
2022-10-05T18:37:21.026Z,99.90
2022-10-05T18:40:40.491Z,99.90
2022-10-05T18:43:39.030Z,99.90
2022-10-05T18:46:15.408Z,99.90
2022-10-05T18:49:18.227Z,99.90
2022-10-05T18:51:53.615Z,99.90
2022-10-05T18:55:05.467Z,99.90
2022-10-05T18:57:40.631Z,99.90
2022-10-05T19:00:46.271Z,99.90
2022-10-05T19:03:46.527Z,99.90
2022-10-05T19:06:28.015Z,99.90
2022-10-05T19:09:23.702Z,99.90
2022-10-05T19:12:29.274Z,99.90
2022-10-05T19:15:21.852Z,99.90
2022-10-05T19:17:55.092Z,99.90
2022-10-05T19:23:51.655Z,99.90
2022-10-05T19:26:51.849Z,99.90
2022-10-05T19:29:45.069Z,99.90
2022-10-05T19:35:33.350Z,99.90
2022-10-05T19:38:54.549Z,99.90
2022-10-05T19:41:27.793Z,99.90
2022-10-05T19:44:26.760Z,99.90
2022-10-05T19:47:27.819Z,99.90
2022-10-05T19:50:32.586Z,99.90
2022-10-05T19:55:49.536Z,99.90
2022-10-05T19:58:20.198Z,99.90
2022-10-05T20:01:06.103Z,99.90
2022-10-05T20:13:02.605Z,99.90
2022-10-05T20:15:54.826Z,99.90
2022-10-05T20:19:09.630Z,99.90
2022-10-05T20:21:40.282Z,99.90
2022-10-05T20:24:10.792Z,99.90
2022-10-05T20:27:06.967Z,99.90
2022-10-05T20:29:41.712Z,99.90
2022-10-05T20:32:19.416Z,99.90
2022-10-05T20:35:07.104Z,99.90
2022-10-05T20:37:37.396Z,99.90
2022-10-05T20:40:04.779Z,99.90
2022-10-05T20:42:35.966Z,99.90
2022-10-05T20:45:15.406Z,99.90
2022-10-05T20:51:05.173Z,99.90
2022-10-05T20:53:34.177Z,99.90
2022-10-05T20:56:03.790Z,99.90
2022-10-05T20:58:31.976Z,99.90
2022-10-05T21:01:26.814Z,99.90
2022-10-05T21:04:06.354Z,99.90
2022-10-05T21:07:23.275Z,99.90
2022-10-05T21:09:55.990Z,99.90
2022-10-05T21:12:32.012Z,99.90
2022-10-05T21:15:00.746Z,99.90
2022-10-05T21:17:32.204Z,99.90
2022-10-05T21:19:59.345Z,99.90
2022-10-05T21:22:26.371Z,99.90
2022-10-05T21:24:54.414Z,99.90
2022-10-05T21:27:49.405Z,99.90
2022-10-05T21:30:16.365Z,99.90
2022-10-05T21:32:48.315Z,99.90
2022-10-05T21:35:16.275Z,99.90
2022-10-05T21:37:46.605Z,99.90
2022-10-05T21:40:15.434Z,99.90
2022-10-05T21:42:43.131Z,99.90
2022-10-05T21:48:15.818Z,99.90
2022-10-05T21:50:56.586Z,99.90
2022-10-05T21:53:36.759Z,99.90
2022-10-05T21:56:10.300Z,99.90
2022-10-05T21:58:43.365Z,99.90
2022-10-05T22:01:29.795Z,99.90
2022-10-05T22:04:26.008Z,99.90
2022-10-05T22:06:55.207Z,99.90
2022-10-05T22:09:25.460Z,99.90
2022-10-05T22:12:02.210Z,99.90
2022-10-05T22:14:34.865Z,99.90
2022-10-05T22:17:03.017Z,99.90
2022-10-05T22:19:34.929Z,99.90
2022-10-05T22:22:11.994Z,99.90
2022-10-05T22:24:40.462Z,99.90
2022-10-05T22:30:05.060Z,99.90
2022-10-05T22:32:38.428Z,99.90
2022-10-05T22:35:11.226Z,99.90
2022-10-05T22:37:39.803Z,99.90
2022-10-05T22:40:10.404Z,99.90
2022-10-05T22:42:43.522Z,99.90
2022-10-05T22:45:11.241Z,99.90
2022-10-05T22:47:39.518Z,99.90
2022-10-05T22:50:08.722Z,99.90
2022-10-05T22:52:39.238Z,99.90
2022-10-05T22:55:07.624Z,99.90
2022-10-05T23:00:57.182Z,99.90
2022-10-05T23:03:23.322Z,99.90
2022-10-05T23:06:08.377Z,99.90
2022-10-05T23:08:37.444Z,99.90
2022-10-05T23:11:21.184Z,99.90
2022-10-05T23:13:51.391Z,99.90
2022-10-05T23:16:44.968Z,99.90
2022-10-05T23:19:18.014Z,99.90
2022-10-05T23:21:45.485Z,99.90
2022-10-05T23:24:13.305Z,99.90
2022-10-05T23:26:40.887Z,99.90
2022-10-05T23:29:09.706Z,99.90
2022-10-05T23:31:36.489Z,99.90
2022-10-05T23:34:06.484Z,99.90
2022-10-05T23:36:33.171Z,99.90
2022-10-05T23:39:09.811Z,99.90
